Time;durP1;ratioP1;P1;durP2;ratioP2;P2;SDS_P1;SDS_P2;PMS_P1;PMS_P2;Temp;Humidity;BMP_temperature;BMP_pressure;BME280_temperature;BME280_humidity;BME280_pressure;Samples;Min_cycle;Max_cycle;Signal;HPM_P1;HPM_P2
2021/12/21 00:00:41;;;;;;;28.27;9.85;;;;;;;-1.60;86.32;102628.31;5024513;28;20389;-78
2021/12/21 00:03:06;;;;;;;30.10;9.95;;;;;;;-1.63;86.52;102630.91;5019690;28;20096;-79
2021/12/21 00:05:32;;;;;;;30.45;12.35;;;;;;;-1.61;86.30;102634.44;5011069;28;20335;-78
2021/12/21 00:08:00;;;;;;;28.65;10.45;;;;;;;-1.64;86.76;102631.78;5017216;28;20124;-79
2021/12/21 00:10:28;;;;;;;25.08;10.80;;;;;;;-1.67;86.36;102626.50;4997050;28;20026;-79
2021/12/21 00:15:25;;;;;;;25.17;9.43;;;;;;;-1.66;87.20;102628.28;5011786;28;20030;-78
2021/12/21 00:18:00;;;;;;;23.10;9.57;;;;;;;-1.68;87.21;102632.66;4997328;28;20389;-78
2021/12/21 00:20:46;;;;;;;23.20;9.43;;;;;;;-1.72;86.73;102629.09;4993531;28;20064;-78
2021/12/21 00:25:58;;;;;;;25.15;9.32;;;;;;;-1.78;86.46;102621.16;5012919;28;20033;-78
2021/12/21 00:28:24;;;;;;;25.25;10.52;;;;;;;-1.81;86.22;102624.66;4998510;28;20052;-78
2021/12/21 00:30:50;;;;;;;24.13;10.45;;;;;;;-1.83;86.48;102615.88;5003768;28;20053;-78
2021/12/21 00:33:15;;;;;;;25.02;9.45;;;;;;;-1.86;86.65;102621.13;4995327;28;20026;-78
2021/12/21 00:35:41;;;;;;;22.67;9.25;;;;;;;-1.89;85.88;102622.84;5017155;28;20041;-78
2021/12/21 00:38:06;;;;;;;22.98;9.35;;;;;;;-1.92;86.38;102615.78;5003212;28;20124;-78
2021/12/21 00:40:32;;;;;;;28.33;9.95;;;;;;;-1.95;85.49;102613.13;5016175;28;20416;-78
2021/12/21 00:42:57;;;;;;;27.60;8.93;;;;;;;-1.95;86.17;102621.94;5011655;28;20397;-78
2021/12/21 00:45:23;;;;;;;24.90;10.23;;;;;;;-1.97;86.76;102613.13;4996912;28;20026;-78
2021/12/21 00:47:49;;;;;;;25.33;9.38;;;;;;;-1.98;86.55;102613.13;5011841;28;20041;-78
2021/12/21 00:50:17;;;;;;;23.73;9.07;;;;;;;-2.00;86.73;102606.97;5010855;28;20026;-78
2021/12/21 00:52:53;;;;;;;24.98;9.48;;;;;;;-1.98;87.03;102605.22;4992839;28;20520;-78
2021/12/21 00:55:20;;;;;;;38.63;10.35;;;;;;;-2.01;86.24;102598.16;4992995;28;20448;-78
2021/12/21 00:57:45;;;;;;;26.38;11.02;;;;;;;-2.04;85.85;102599.91;4999232;28;20025;-78
2021/12/21 01:00:14;;;;;;;20.38;8.20;;;;;;;-2.07;86.10;102607.78;5024228;28;20093;-78
2021/12/21 01:02:41;;;;;;;21.35;8.32;;;;;;;-2.09;86.15;102598.97;5017737;28;20483;-78
2021/12/21 01:05:15;;;;;;;23.23;7.88;;;;;;;-2.14;86.12;102596.31;5000422;28;20347;-78
2021/12/21 01:07:44;;;;;;;30.63;8.77;;;;;;;-2.16;86.34;102601.56;5018325;28;20404;-79
2021/12/21 01:11:16;;;;;;;22.73;9.02;;;;;;;-2.17;86.40;102596.28;5019549;28;20112;-78
2021/12/21 01:18:20;;;;;;;21.67;7.07;;;;;;;-2.25;85.73;102606.75;5010935;28;20389;-78
2021/12/21 01:21:10;;;;;;;22.52;8.48;;;;;;;-2.26;85.96;102596.22;5008902;28;20021;-78
2021/12/21 01:26:17;;;;;;;25.05;7.43;;;;;;;-2.28;85.83;102606.75;5010400;28;20034;-78
2021/12/21 01:29:04;;;;;;;26.10;8.13;;;;;;;-2.32;85.64;102603.19;5011437;28;20099;-78
2021/12/21 01:31:52;;;;;;;24.83;8.35;;;;;;;-2.37;85.17;102606.63;5004348;28;20029;-78
2021/12/21 01:36:53;;;;;;;20.73;7.45;;;;;;;-2.44;84.84;102597.81;5009790;28;20065;-78
2021/12/21 01:42:02;;;;;;;22.45;7.93;;;;;;;-2.48;85.58;102594.25;5001568;28;20034;-78
2021/12/21 01:49:55;;;;;;;22.48;8.80;;;;;;;-2.47;84.82;102590.78;5013653;28;20466;-78
2021/12/21 01:52:25;;;;;;;23.55;8.45;;;;;;;-2.48;84.86;102580.22;4991683;28;20132;-78
2021/12/21 01:54:53;;;;;;;20.42;7.15;;;;;;;-2.48;85.35;102583.72;5006706;28;20075;-78
2021/12/21 01:57:18;;;;;;;31.50;8.88;;;;;;;-2.48;86.07;102583.72;5013087;28;20049;-78
2021/12/21 01:59:46;;;;;;;20.88;7.97;;;;;;;-2.49;86.01;102583.72;5001100;28;20448;-78
2021/12/21 02:02:14;;;;;;;21.02;8.05;;;;;;;-2.49;85.69;102584.63;5020108;28;20029;-83
2021/12/21 02:04:41;;;;;;;31.70;8.15;;;;;;;-2.49;86.23;102578.44;5015265;28;20026;-83
2021/12/21 02:07:07;;;;;;;22.65;7.50;;;;;;;-2.48;85.85;102577.59;5010853;28;20104;-83
2021/12/21 02:09:39;;;;;;;24.45;9.07;;;;;;;-2.50;85.26;102574.09;5010678;28;20168;-84
2021/12/21 02:12:06;;;;;;;23.67;8.93;;;;;;;-2.51;86.00;102569.66;5009241;28;20034;-83
2021/12/21 02:14:32;;;;;;;19.45;6.43;;;;;;;-2.52;86.23;102570.53;4992506;28;20030;-83
2021/12/21 02:20:17;;;;;;;20.63;6.15;;;;;;;-2.54;86.33;102572.28;5010532;28;20464;-83
2021/12/21 02:22:53;;;;;;;19.95;6.97;;;;;;;-2.62;85.37;102569.59;4999523;28;20033;-83
2021/12/21 02:28:12;;;;;;;20.90;7.88;;;;;;;-2.67;85.13;102564.25;5024026;28;20069;-83
2021/12/21 02:30:42;;;;;;;22.25;8.60;;;;;;;-2.66;85.11;102562.53;4993266;28;20342;-83
2021/12/21 02:33:08;;;;;;;26.45;7.95;;;;;;;-2.66;85.37;102573.06;4993601;28;20466;-83
2021/12/21 02:35:34;;;;;;;24.45;8.02;;;;;;;-2.66;85.25;102568.66;4996101;28;20029;-83
2021/12/21 02:37:59;;;;;;;21.20;7.88;;;;;;;-2.67;85.35;102566.00;4980932;28;20028;-83
2021/12/21 02:40:25;;;;;;;23.52;7.82;;;;;;;-2.68;85.40;102569.50;4987638;28;20423;-83
2021/12/21 02:42:50;;;;;;;22.92;7.43;;;;;;;-2.70;85.03;102560.72;5003585;28;20033;-83
2021/12/21 02:45:15;;;;;;;23.98;7.80;;;;;;;-2.73;85.32;102561.56;5004085;28;20068;-83
2021/12/21 02:47:41;;;;;;;23.50;7.80;;;;;;;-2.76;85.40;102564.19;4991864;28;20068;-83
2021/12/21 02:50:07;;;;;;;21.30;7.80;;;;;;;-2.77;85.22;102556.28;5014123;28;20113;-83
2021/12/21 02:52:33;;;;;;;22.63;8.85;;;;;;;-2.81;85.69;102564.13;4990644;28;20026;-83
2021/12/21 02:55:03;;;;;;;27.80;8.68;;;;;;;-2.81;85.23;102558.00;4993131;28;20041;-83
2021/12/21 02:57:28;;;;;;;22.50;8.52;;;;;;;-2.81;85.38;102558.00;4991845;28;20374;-83
2021/12/21 02:59:54;;;;;;;29.52;8.95;;;;;;;-2.83;85.57;102559.72;5008269;28;20112;-83
2021/12/21 03:02:19;;;;;;;27.38;8.55;;;;;;;-2.83;85.26;102552.69;5022526;28;20029;-83
2021/12/21 03:04:46;;;;;;;26.13;9.93;;;;;;;-2.84;85.65;102556.22;4997911;28;20030;-83
2021/12/21 03:07:43;;;;;;;23.55;8.82;;;;;;;-2.86;85.48;102557.06;4990747;28;20185;-83
2021/12/21 03:10:02;;;;;;;23.35;8.52;;;;;;;-2.87;85.66;102557.91;5008510;28;20452;-83
2021/12/21 03:13:52;;;;;;;29.48;8.07;;;;;;;-2.91;85.74;102556.16;4999080;28;20017;-83
2021/12/21 03:15:17;;;;;;;22.02;8.07;;;;;;;-2.92;85.07;102560.50;5010711;28;20477;-83
2021/12/21 03:17:43;;;;;;;25.73;10.27;;;;;;;-2.92;85.20;102555.25;5009213;28;20466;-83
2021/12/21 03:20:08;;;;;;;25.35;8.85;;;;;;;-2.92;84.89;102557.00;4991699;28;20041;-83
2021/12/21 03:22:34;;;;;;;23.55;8.25;;;;;;;-2.91;85.20;102556.16;4993075;28;20381;-83
2021/12/21 03:24:59;;;;;;;29.17;7.68;;;;;;;-2.89;85.06;102543.88;5000697;28;20731;-83
2021/12/21 03:27:24;;;;;;;23.00;8.65;;;;;;;-2.91;84.89;102549.13;5022318;28;20037;-83
2021/12/21 03:29:50;;;;;;;23.17;7.90;;;;;;;-2.91;85.18;102554.38;4996301;28;20033;-83
2021/12/21 03:32:15;;;;;;;22.90;7.45;;;;;;;-2.90;84.94;102552.63;5011963;28;20450;-83
2021/12/21 03:34:40;;;;;;;29.33;9.27;;;;;;;-2.94;84.78;102542.94;4999526;28;20916;-83
2021/12/21 03:37:11;;;;;;;24.80;8.32;;;;;;;-2.95;84.79;102542.06;5016813;28;20029;-83
2021/12/21 03:39:38;;;;;;;28.50;8.32;;;;;;;-2.95;84.40;102549.09;4990036;28;20080;-83
2021/12/21 03:42:04;;;;;;;28.40;9.85;;;;;;;-2.95;84.47;102549.09;4995121;28;20025;-83
2021/12/21 03:44:30;;;;;;;23.65;9.30;;;;;;;-2.95;84.54;102549.09;5008523;28;20397;-83
2021/12/21 03:46:56;;;;;;;28.55;9.32;;;;;;;-2.95;84.98;102544.69;5009137;28;20029;-83
2021/12/21 03:52:12;;;;;;;24.98;8.60;;;;;;;-2.97;84.52;102540.28;5008633;28;20088;-83
2021/12/21 03:54:39;;;;;;;23.88;10.02;;;;;;;-2.99;84.59;102543.81;5012869;28;20036;-83
2021/12/21 03:57:04;;;;;;;22.98;8.90;;;;;;;-3.00;84.83;102547.28;5009529;28;20352;-83
2021/12/21 03:59:30;;;;;;;22.48;9.18;;;;;;;-2.99;84.96;102542.91;4998867;28;20041;-83
2021/12/21 04:01:57;;;;;;;23.35;8.40;;;;;;;-3.01;85.13;102534.13;4998168;28;20042;-83
2021/12/21 04:04:23;;;;;;;23.35;7.65;;;;;;;-3.06;84.63;102536.72;5015279;28;20092;-83
2021/12/21 04:06:49;;;;;;;22.98;8.27;;;;;;;-3.02;85.26;102542.88;5021746;28;20128;-83
2021/12/21 04:09:15;;;;;;;23.88;9.32;;;;;;;-3.04;84.93;102542.84;4996084;28;20140;-83
2021/12/21 04:11:41;;;;;;;22.35;8.30;;;;;;;-3.06;85.13;102535.81;4990701;28;20030;-83
2021/12/21 04:14:07;;;;;;;24.60;9.48;;;;;;;-3.06;84.75;102541.97;5010229;28;20383;-83
2021/12/21 04:16:32;;;;;;;22.35;7.35;;;;;;;-3.09;84.87;102533.16;4989896;28;20064;-83
2021/12/21 04:18:58;;;;;;;23.33;9.00;;;;;;;-3.11;85.23;102533.13;4990542;28;20037;-83
2021/12/21 04:21:24;;;;;;;28.05;9.63;;;;;;;-3.11;85.23;102537.53;4996267;28;20334;-83
2021/12/21 04:23:49;;;;;;;22.02;8.27;;;;;;;-3.13;84.73;102536.59;4997528;28;20112;-83
2021/12/21 04:26:16;;;;;;;25.63;8.75;;;;;;;-3.12;84.91;102538.38;4987132;28;20096;-84
2021/12/21 04:28:42;;;;;;;25.63;9.27;;;;;;;-3.19;84.61;102522.53;4991170;28;20720;-83
2021/12/21 04:31:10;;;;;;;23.42;8.57;;;;;;;-3.18;84.86;102534.81;5008751;28;20422;-83
2021/12/21 04:33:35;;;;;;;24.17;8.65;;;;;;;-3.22;84.29;102535.66;4996605;28;20029;-83
2021/12/21 04:36:01;;;;;;;21.83;7.78;;;;;;;-3.24;84.10;102534.75;4991782;28;20944;-83
2021/12/21 04:38:37;;;;;;;24.75;9.40;;;;;;;-3.25;84.49;102535.63;4990132;28;20671;-83
2021/12/21 04:41:13;;;;;;;22.30;8.48;;;;;;;-3.25;84.79;102529.47;4999756;28;20327;-83
2021/12/21 04:43:39;;;;;;;23.88;8.57;;;;;;;-3.27;84.82;102526.81;5002413;28;20458;-83
2021/12/21 04:46:05;;;;;;;26.23;8.60;;;;;;;-3.31;84.98;102524.13;5002594;28;20040;-83
2021/12/21 04:48:30;;;;;;;27.63;8.52;;;;;;;-3.33;84.84;102522.38;4994352;28;20121;-83
2021/12/21 04:50:56;;;;;;;25.80;8.73;;;;;;;-3.35;84.67;102518.84;4992932;28;20133;-83
2021/12/21 04:53:21;;;;;;;26.08;10.00;;;;;;;-3.35;84.95;102528.50;4998109;28;20572;-83
2021/12/21 04:55:47;;;;;;;28.80;11.27;;;;;;;-3.37;84.99;102524.94;4997316;28;20034;-83
2021/12/21 04:58:12;;;;;;;23.27;8.50;;;;;;;-3.36;84.32;102527.59;4993649;28;20462;-83
2021/12/21 05:00:39;;;;;;;25.90;10.18;;;;;;;-3.35;84.92;102529.38;5003458;28;20072;-83
2021/12/21 05:03:05;;;;;;;32.35;9.55;;;;;;;-3.37;84.75;102524.94;5030559;28;20033;-83
2021/12/21 05:05:30;;;;;;;24.45;8.52;;;;;;;-3.38;85.07;102528.47;4997230;28;20389;-83
2021/12/21 05:08:07;;;;;;;28.30;9.40;;;;;;;-3.39;85.39;102530.19;5021047;28;20672;-83
2021/12/21 05:10:45;;;;;;;25.00;8.57;;;;;;;-3.37;84.66;102522.31;5010749;28;20030;-83
2021/12/21 05:13:11;;;;;;;27.08;10.70;;;;;;;-3.37;84.57;102530.22;5012289;28;20034;-83
2021/12/21 05:15:36;;;;;;;26.40;9.60;;;;;;;-3.37;84.29;102528.47;5019127;28;20034;-83
2021/12/21 05:18:01;;;;;;;27.15;9.73;;;;;;;-3.38;84.13;102531.97;4994607;28;20481;-83
2021/12/21 05:20:27;;;;;;;24.77;8.57;;;;;;;-3.40;83.51;102527.53;5010598;28;20030;-83
2021/12/21 05:22:52;;;;;;;25.98;9.52;;;;;;;-3.42;83.39;102530.16;4993649;28;20033;-83
2021/12/21 05:25:18;;;;;;;23.67;8.88;;;;;;;-3.44;83.59;102528.38;5007217;28;20040;-83
2021/12/21 05:27:44;;;;;;;28.20;9.90;;;;;;;-3.47;82.80;102523.06;5000482;28;20048;-83
2021/12/21 05:30:10;;;;;;;26.48;9.02;;;;;;;-3.47;83.26;102523.97;5008842;28;20087;-83
2021/12/21 05:32:35;;;;;;;25.48;8.70;;;;;;;-3.46;83.15;102530.97;5023469;28;20056;-83
2021/12/21 05:35:00;;;;;;;21.98;8.60;;;;;;;-3.48;83.79;102523.94;4999518;28;20520;-83
2021/12/21 05:37:25;;;;;;;27.17;9.43;;;;;;;-3.45;83.67;102530.13;5026646;28;20030;-83
2021/12/21 05:39:57;;;;;;;25.05;8.75;;;;;;;-3.45;83.59;102521.38;4992854;28;20046;-83
2021/12/21 05:42:23;;;;;;;24.75;8.82;;;;;;;-3.48;83.88;102522.22;5022102;28;20041;-83
2021/12/21 05:44:49;;;;;;;24.23;8.48;;;;;;;-3.51;84.01;102523.03;5015535;28;20033;-83
2021/12/21 05:47:16;;;;;;;22.30;8.50;;;;;;;-3.51;83.56;102533.56;5005072;28;20068;-83
2021/12/21 05:49:41;;;;;;;21.95;8.35;;;;;;;-3.52;84.18;102531.78;5010078;28;20108;-83
2021/12/21 05:52:06;;;;;;;23.20;9.02;;;;;;;-3.53;84.38;102535.28;4993075;28;20596;-83
2021/12/21 05:54:32;;;;;;;23.70;9.30;;;;;;;-3.54;84.02;102530.03;5011083;28;20104;-83
2021/12/21 05:56:57;;;;;;;27.67;9.77;;;;;;;-3.53;84.32;102534.41;5013712;28;20030;-83
2021/12/21 05:59:22;;;;;;;26.20;9.05;;;;;;;-3.55;84.82;102530.88;4998289;28;20021;-83
2021/12/21 06:01:48;;;;;;;23.45;9.27;;;;;;;-3.57;83.97;102525.59;5018335;28;20657;-83
2021/12/21 06:04:13;;;;;;;29.67;10.40;;;;;;;-3.60;84.40;102517.69;4993988;28;20033;-83
2021/12/21 06:06:38;;;;;;;28.20;9.02;;;;;;;-3.61;84.22;102522.94;4995325;28;20112;-83
2021/12/21 06:09:07;;;;;;;26.58;8.63;;;;;;;-3.62;83.88;102531.66;4993431;28;20061;-83
2021/12/21 06:11:38;;;;;;;20.53;8.67;;;;;;;-3.62;84.26;102527.28;4994176;28;20050;-83
2021/12/21 06:25:34;;;;;;;23.55;9.98;;;;;;;-3.64;83.86;102529.00;4998287;28;20155;-83
2021/12/21 06:28:01;;;;;;;30.13;10.15;;;;;;;-3.67;84.09;102534.25;4992749;28;20034;-83
2021/12/21 06:30:26;;;;;;;25.67;9.73;;;;;;;-3.68;83.82;102524.56;5023859;28;20761;-83
2021/12/21 06:32:52;;;;;;;25.23;9.23;;;;;;;-3.68;83.62;102527.22;4997006;28;20107;-83
2021/12/21 06:35:17;;;;;;;24.70;9.95;;;;;;;-3.69;83.50;102520.19;4991879;28;20053;-83
2021/12/21 06:37:43;;;;;;;29.55;9.38;;;;;;;-3.67;83.59;102522.81;4991322;28;20405;-83
2021/12/21 06:40:09;;;;;;;27.92;9.90;;;;;;;-3.70;83.43;102518.44;5005816;28;20053;-83
2021/12/21 06:42:35;;;;;;;29.35;10.25;;;;;;;-3.74;82.86;102524.50;4995080;28;20117;-83
2021/12/21 06:45:02;;;;;;;22.83;8.02;;;;;;;-3.77;83.01;102527.09;4993735;28;20393;-83
2021/12/21 06:52:56;;;;;;;28.52;9.45;;;;;;;-3.80;83.67;102527.06;5009685;28;20564;-83
2021/12/21 06:55:21;;;;;;;26.90;9.45;;;;;;;-3.81;84.44;102528.78;4997831;28;20033;-83
2021/12/21 06:57:46;;;;;;;22.20;9.27;;;;;;;-3.80;84.30;102532.31;5010294;28;20839;-83
2021/12/21 07:00:17;;;;;;;25.88;9.65;;;;;;;-3.80;84.45;102529.69;4997999;28;20043;-83
2021/12/21 07:02:42;;;;;;;25.45;8.80;;;;;;;-3.82;84.18;102527.03;5005559;28;20034;-83
2021/12/21 07:05:09;;;;;;;33.00;9.75;;;;;;;-3.83;84.06;102534.91;5007372;28;20036;-83
2021/12/21 07:07:35;;;;;;;24.13;9.60;;;;;;;-3.82;84.21;102537.53;4999145;28;20143;-83
2021/12/21 07:10:04;;;;;;;24.80;9.95;;;;;;;-3.85;83.98;102532.25;4991164;28;20064;-83
2021/12/21 07:18:12;;;;;;;27.42;11.05;;;;;;;-3.80;84.66;102537.56;5027787;28;20103;-83
2021/12/21 07:20:37;;;;;;;22.42;8.90;;;;;;;-3.81;84.78;102544.53;5023406;28;20030;-83
2021/12/21 07:23:03;;;;;;;23.88;9.85;;;;;;;-3.79;84.49;102545.47;4992936;28;20116;-83
2021/12/21 07:25:30;;;;;;;26.52;10.60;;;;;;;-3.79;83.81;102544.56;4995859;28;20029;-83
2021/12/21 07:27:56;;;;;;;27.52;10.27;;;;;;;-3.79;83.86;102547.19;5023159;28;20080;-83
2021/12/21 07:30:21;;;;;;;31.30;11.38;;;;;;;-3.82;83.89;102540.19;4999798;28;20121;-83
2021/12/21 07:32:47;;;;;;;27.02;9.73;;;;;;;-3.83;84.06;102545.41;5008199;28;20057;-83
2021/12/21 07:35:12;;;;;;;25.85;9.18;;;;;;;-3.80;84.69;102537.56;4995004;28;20417;-83
2021/12/21 07:37:38;;;;;;;26.40;10.57;;;;;;;-3.77;84.70;102540.22;4975605;28;20378;-83
2021/12/21 07:40:05;;;;;;;26.50;9.60;;;;;;;-3.74;83.79;102546.41;5016498;28;20076;-83
2021/12/21 07:42:31;;;;;;;24.77;9.95;;;;;;;-3.70;84.20;102544.72;5008242;28;20053;-84
2021/12/21 07:44:57;;;;;;;26.48;10.35;;;;;;;-3.65;83.92;102544.75;4990939;28;20061;-84
2021/12/21 07:47:22;;;;;;;28.35;11.23;;;;;;;-3.64;84.11;102550.03;4991794;28;20112;-84
2021/12/21 07:49:48;;;;;;;25.65;10.10;;;;;;;-3.60;83.86;102557.09;4990667;28;20049;-84
2021/12/21 07:52:14;;;;;;;23.75;10.68;;;;;;;-3.64;83.77;102546.53;5016428;28;20025;-84
2021/12/21 07:54:39;;;;;;;23.15;8.95;;;;;;;-3.67;83.87;102557.88;5003131;28;20394;-83
2021/12/21 07:57:08;;;;;;;27.30;12.85;;;;;;;-3.70;83.31;102557.84;4982237;28;20018;-83
2021/12/21 07:59:35;;;;;;;30.98;11.93;;;;;;;-3.77;83.55;102553.38;4978167;28;20169;-83
2021/12/21 08:02:01;;;;;;;27.45;10.65;;;;;;;-3.76;83.64;102558.66;5007327;28;20018;-83
2021/12/21 08:04:28;;;;;;;25.63;9.90;;;;;;;-3.76;83.55;102565.66;4991240;28;20413;-83
2021/12/21 08:06:56;;;;;;;25.98;11.23;;;;;;;-3.78;83.40;102559.47;5006699;28;20082;-83
2021/12/21 08:09:21;;;;;;;27.15;11.10;;;;;;;-3.76;83.77;102563.91;4990517;28;20029;-83
2021/12/21 08:14:32;;;;;;;26.90;10.52;;;;;;;-3.76;84.77;102563.03;5006011;28;20037;-84
2021/12/21 08:16:58;;;;;;;25.20;10.48;;;;;;;-3.75;84.18;102572.66;4987945;28;20228;-83
2021/12/21 08:19:23;;;;;;;27.35;10.98;;;;;;;-3.72;84.27;102570.06;5010315;28;20469;-84
2021/12/21 08:21:48;;;;;;;25.63;9.13;;;;;;;-3.70;84.12;102560.47;4989056;28;20033;-83
2021/12/21 08:24:13;;;;;;;28.92;12.02;;;;;;;-3.67;83.97;102564.88;4991746;28;20038;-83
2021/12/21 08:26:39;;;;;;;26.35;10.15;;;;;;;-3.69;84.09;102564.84;5008546;28;20457;-83
2021/12/21 08:29:04;;;;;;;24.65;10.10;;;;;;;-3.67;84.73;102556.97;5008811;28;20034;-83
2021/12/21 08:31:29;;;;;;;26.45;9.35;;;;;;;-3.65;84.76;102558.78;4991589;28;20116;-83
2021/12/21 08:33:54;;;;;;;23.30;9.55;;;;;;;-3.60;84.61;102558.81;4994894;28;20457;-83
2021/12/21 08:36:20;;;;;;;28.52;11.02;;;;;;;-3.56;85.34;102561.53;4994683;28;20029;-83
2021/12/21 08:38:45;;;;;;;29.77;10.93;;;;;;;-3.54;85.08;102558.94;4995225;28;20064;-83
2021/12/21 08:41:11;;;;;;;25.70;10.23;;;;;;;-3.49;85.31;102558.97;5007919;28;20701;-83
2021/12/21 08:43:37;;;;;;;28.98;11.05;;;;;;;-3.46;84.89;102567.78;4992588;28;20029;-83
2021/12/21 08:46:04;;;;;;;26.35;10.90;;;;;;;-3.42;84.90;102563.47;5011119;28;20028;-83
2021/12/21 08:48:31;;;;;;;26.92;11.63;;;;;;;-3.35;86.84;102560.03;4993148;28;20033;-83
2021/12/21 08:50:57;;;;;;;30.92;12.10;;;;;;;-3.27;87.70;102568.88;4991111;28;20562;-83
2021/12/21 08:53:23;;;;;;;26.67;11.70;;;;;;;-3.17;87.57;102568.13;5008663;28;20064;-83
2021/12/21 08:55:52;;;;;;;26.38;10.77;;;;;;;-3.09;88.13;102569.97;4988556;28;20519;-83
2021/12/21 08:58:19;;;;;;;28.33;12.50;;;;;;;-3.04;87.73;102563.91;5008333;28;20063;-84
2021/12/21 09:00:44;;;;;;;26.08;11.18;;;;;;;-2.97;87.64;102563.94;5004926;28;20025;-84
2021/12/21 09:03:11;;;;;;;31.15;11.75;;;;;;;-2.94;87.81;102564.88;4989963;28;20099;-83
2021/12/21 09:05:37;;;;;;;27.35;11.25;;;;;;;-2.89;87.82;102576.31;4989651;28;20056;-83
2021/12/21 09:08:05;;;;;;;26.17;10.75;;;;;;;-2.84;87.75;102574.63;4989457;28;20050;-83
2021/12/21 09:10:30;;;;;;;26.27;10.60;;;;;;;-2.81;87.37;102568.53;5007741;28;20100;-84
2021/12/21 09:12:56;;;;;;;29.95;11.30;;;;;;;-2.74;87.76;102579.97;4992826;28;20112;-84
2021/12/21 09:15:23;;;;;;;29.73;12.98;;;;;;;-2.72;87.49;102562.47;4991403;28;20072;-84
2021/12/21 09:17:49;;;;;;;29.15;12.40;;;;;;;-2.65;87.72;102575.69;5008488;28;20044;-83
2021/12/21 09:20:17;;;;;;;27.17;13.38;;;;;;;-2.57;87.38;102575.75;5006680;28;20034;-84
2021/12/21 09:22:42;;;;;;;25.85;11.63;;;;;;;-2.49;87.88;102567.91;5003410;28;21409;-84
2021/12/21 09:25:09;;;;;;;25.40;12.10;;;;;;;-2.42;88.18;102574.13;5007917;28;20041;-84
2021/12/21 09:27:35;;;;;;;27.30;12.20;;;;;;;-2.36;88.51;102574.19;5007112;28;20037;-84
2021/12/21 09:30:00;;;;;;;28.55;13.63;;;;;;;-2.30;88.23;102566.31;4990004;28;20056;-84
2021/12/21 09:32:26;;;;;;;27.33;12.95;;;;;;;-2.21;88.25;102568.16;4991222;28;20018;-84
2021/12/21 09:34:51;;;;;;;28.65;14.32;;;;;;;-2.11;88.95;102568.25;5008022;28;20042;-84
2021/12/21 09:37:20;;;;;;;26.70;12.02;;;;;;;-2.02;88.50;102564.78;5009573;28;20064;-84
2021/12/21 09:39:51;;;;;;;31.63;13.38;;;;;;;-1.91;88.33;102564.84;5008009;28;21296;-84
2021/12/21 09:42:22;;;;;;;27.75;13.07;;;;;;;-1.87;88.38;102566.63;5005804;28;20113;-84
2021/12/21 09:44:48;;;;;;;29.27;13.82;;;;;;;-1.77;88.52;102579.00;5005554;28;20048;-84
2021/12/21 09:47:15;;;;;;;29.63;12.60;;;;;;;-1.73;87.75;102557.94;4988659;28;20116;-84
2021/12/21 09:49:42;;;;;;;29.35;13.30;;;;;;;-1.69;87.74;102571.13;4990578;28;20029;-84
2021/12/21 09:52:11;;;;;;;27.73;13.95;;;;;;;-1.68;87.84;102562.34;5004771;28;20049;-84
2021/12/21 09:54:38;;;;;;;28.38;13.15;;;;;;;-1.66;86.83;102565.00;4988347;28;20040;-84
2021/12/21 09:57:05;;;;;;;27.60;12.23;;;;;;;-1.61;87.57;102568.53;4989451;28;20029;-84
2021/12/21 09:59:30;;;;;;;26.80;11.57;;;;;;;-1.58;87.14;102569.44;4991708;28;20029;-84
2021/12/21 10:01:57;;;;;;;32.63;12.52;;;;;;;-1.55;87.20;102571.22;4991037;28;21511;-84
2021/12/21 10:04:24;;;;;;;27.55;12.88;;;;;;;-1.52;86.99;102563.31;4988604;28;20149;-84
2021/12/21 10:06:54;;;;;;;31.08;12.68;;;;;;;-1.47;87.18;102563.34;5002451;28;20050;-84
2021/12/21 10:09:23;;;;;;;26.05;10.88;;;;;;;-1.44;87.29;102555.44;4987703;28;20499;-84
2021/12/21 10:11:49;;;;;;;26.67;12.88;;;;;;;-1.42;87.38;102546.66;4990413;28;20109;-84
2021/12/21 10:14:16;;;;;;;32.13;12.68;;;;;;;-1.38;86.86;102544.03;4988416;28;20201;-84
2021/12/21 10:16:43;;;;;;;25.15;12.38;;;;;;;-1.31;87.19;102545.81;4988331;28;20017;-84
2021/12/21 10:19:19;;;;;;;25.73;12.70;;;;;;;-1.26;87.68;102559.88;4991937;28;20041;-84
2021/12/21 10:21:45;;;;;;;25.77;12.45;;;;;;;-1.21;88.28;102552.00;4988132;28;20063;-84
2021/12/21 10:24:24;;;;;;;28.00;13.13;;;;;;;-1.16;87.44;102548.50;4986440;28;20048;-84
2021/12/21 10:26:52;;;;;;;30.20;12.07;;;;;;;-1.12;87.56;102545.00;5000997;28;20810;-84
2021/12/21 10:29:18;;;;;;;26.02;12.45;;;;;;;-1.04;87.39;102538.84;4988149;28;20041;-84
2021/12/21 10:31:47;;;;;;;27.95;12.43;;;;;;;-0.97;87.48;102535.34;5005115;28;20466;-84
2021/12/21 10:34:16;;;;;;;31.60;11.60;;;;;;;-0.95;87.20;102533.56;5002417;28;20029;-84
2021/12/21 10:36:50;;;;;;;28.10;11.52;;;;;;;-0.82;86.95;102535.38;4985025;28;20029;-84
2021/12/21 10:39:21;;;;;;;25.92;11.73;;;;;;;-0.78;86.66;102526.56;5005115;28;20847;-84
2021/12/21 10:41:46;;;;;;;22.65;10.20;;;;;;;-0.72;86.32;102526.59;4987032;28;20088;-84
2021/12/21 10:44:14;;;;;;;23.60;10.05;;;;;;;-0.69;86.31;102532.75;4989690;28;20054;-84
2021/12/21 10:46:43;;;;;;;20.90;9.50;;;;;;;-0.61;86.63;102529.22;5005516;28;20018;-84
2021/12/21 10:49:15;;;;;;;26.38;10.07;;;;;;;-0.54;85.48;102535.41;4991721;28;20298;-84
2021/12/21 10:51:53;;;;;;;23.83;8.57;;;;;;;-0.45;85.44;102524.84;4987245;28;20504;-84
2021/12/21 10:54:28;;;;;;;23.88;8.32;;;;;;;-0.39;85.09;102531.88;4987082;28;20943;-84
2021/12/21 10:56:58;;;;;;;20.80;7.88;;;;;;;-0.32;83.68;102530.09;4987682;28;20611;-84
2021/12/21 10:59:32;;;;;;;21.85;7.57;;;;;;;-0.27;83.29;102526.56;5001330;28;20030;-84
2021/12/21 11:02:18;;;;;;;22.40;8.23;;;;;;;-0.22;84.25;102527.47;4989462;28;20417;-84
2021/12/21 11:04:48;;;;;;;23.50;8.50;;;;;;;-0.19;84.18;102523.91;5007030;28;20066;-84
2021/12/21 11:07:25;;;;;;;27.08;11.40;;;;;;;-0.14;84.71;102529.22;5010615;28;20046;-84
2021/12/21 11:10:11;;;;;;;28.15;13.90;;;;;;;-0.04;86.66;102526.53;4993569;28;20029;-84
2021/12/21 11:12:49;;;;;;;25.67;11.35;;;;;;;0.06;86.04;102521.22;4993599;28;20703;-84
2021/12/21 11:15:19;;;;;;;25.27;11.98;;;;;;;0.12;86.06;102515.94;4996179;28;20030;-84
2021/12/21 11:17:45;;;;;;;30.58;12.32;;;;;;;0.15;85.68;102515.94;5013306;28;20502;-84
2021/12/21 11:20:12;;;;;;;27.08;11.30;;;;;;;0.17;85.83;102516.78;4996748;28;20108;-83
2021/12/21 11:22:40;;;;;;;24.65;11.73;;;;;;;0.19;84.55;102514.16;5010165;28;20148;-84
2021/12/21 11:25:06;;;;;;;22.35;8.55;;;;;;;0.19;83.84;102508.84;4996649;28;20026;-84
2021/12/21 11:27:35;;;;;;;18.58;6.43;;;;;;;0.24;82.05;102496.50;4997134;28;20029;-84
2021/12/21 11:30:04;;;;;;;21.38;7.45;;;;;;;0.29;81.96;102494.72;4991667;28;20617;-84
2021/12/21 11:32:32;;;;;;;26.45;11.25;;;;;;;0.37;84.09;102500.88;4995274;28;20865;-84
2021/12/21 11:37:46;;;;;;;22.13;7.72;;;;;;;0.46;81.11;102484.06;4976851;28;20029;-84
2021/12/21 11:40:15;;;;;;;17.95;6.50;;;;;;;0.49;80.37;102462.91;4997500;28;20104;-83
2021/12/21 11:42:53;;;;;;;19.65;7.03;;;;;;;0.53;81.51;102459.34;4994508;28;20045;-84
2021/12/21 11:45:37;;;;;;;25.05;8.73;;;;;;;0.57;81.63;102466.38;4993719;28;20184;-84
2021/12/21 11:48:08;;;;;;;20.95;7.95;;;;;;;0.60;80.36;102466.38;5011880;28;20037;-84
2021/12/21 11:50:34;;;;;;;27.10;9.20;;;;;;;0.62;80.84;102466.38;4994767;28;20132;-84
2021/12/21 11:53:08;;;;;;;21.15;8.85;;;;;;;0.66;82.05;102465.47;4997770;28;20095;-84
2021/12/21 11:55:37;;;;;;;22.63;8.25;;;;;;;0.63;82.68;102461.06;4997802;28;20045;-84
2021/12/21 11:58:23;;;;;;;21.23;8.33;;;;;;;0.69;82.14;102463.66;5014343;28;20426;-84
2021/12/21 12:01:00;;;;;;;21.70;8.20;;;;;;;0.69;81.37;102461.00;5011318;28;20694;-84
2021/12/21 12:03:28;;;;;;;22.98;9.48;;;;;;;0.74;78.84;102463.63;4998592;28;20458;-84
2021/12/21 12:06:03;;;;;;;22.63;8.68;;;;;;;0.76;80.90;102455.69;5015399;28;21067;-83
2021/12/21 12:08:42;;;;;;;22.92;8.60;;;;;;;0.83;80.41;102446.81;4991743;28;20081;-83
2021/12/21 12:11:07;;;;;;;23.42;8.60;;;;;;;0.85;79.86;102461.81;5011599;28;20041;-83
2021/12/21 12:13:37;;;;;;;19.23;7.30;;;;;;;0.87;80.91;102451.19;4995636;28;20075;-83
2021/12/21 12:16:13;;;;;;;22.27;7.18;;;;;;;0.91;80.07;102447.66;4987732;28;20105;-83
2021/12/21 12:18:43;;;;;;;19.10;7.10;;;;;;;0.96;78.78;102447.59;4992715;28;20037;-83